Time;durP1;ratioP1;P1;durP2;ratioP2;P2;SDS_P1;SDS_P2;PMS_P1;PMS_P2;Temp;Humidity;BMP_temperature;BMP_pressure;BME280_temperature;BME280_humidity;BME280_pressure;Samples;Min_cycle;Max_cycle;Signal;HPM_P1;HPM_P2
2021/08/22 00:00:33;;;;;;;1.42;1.13;;;;;;;;;;5011745;28;20168;-60
2021/08/22 00:02:59;;;;;;;1.50;1.10;;;;;;;;;;5010384;28;20053;-60
2021/08/22 00:05:25;;;;;;;0.98;0.60;;;;;;;;;;5011662;28;20038;-60
2021/08/22 00:07:51;;;;;;;1.83;1.00;;;;;;;;;;5008163;28;20072;-60
2021/08/22 00:10:17;;;;;;;1.70;1.10;;;;;;;;;;5007435;28;20038;-59
2021/08/22 00:12:43;;;;;;;2.17;1.13;;;;;;;;;;5010864;28;20033;-60
2021/08/22 00:15:10;;;;;;;1.95;1.00;;;;;;;;;;5002387;28;20033;-60
2021/08/22 00:17:36;;;;;;;1.27;1.05;;;;;;;;;;5010219;28;20025;-60
2021/08/22 00:20:02;;;;;;;3.03;0.93;;;;;;;;;;5010678;28;20565;-60
2021/08/22 00:22:28;;;;;;;2.63;1.00;;;;;;;;;;5011429;28;20125;-61
2021/08/22 00:24:54;;;;;;;2.17;1.40;;;;;;;;;;5007311;28;20026;-60
2021/08/22 00:27:20;;;;;;;1.45;1.05;;;;;;;;;;5005143;28;20045;-60
2021/08/22 00:29:46;;;;;;;1.77;1.05;;;;;;;;;;5010407;28;20482;-60
2021/08/22 00:32:12;;;;;;;1.55;0.90;;;;;;;;;;5011015;28;20034;-60
2021/08/22 00:34:38;;;;;;;2.70;1.40;;;;;;;;;;5003641;28;20113;-60
2021/08/22 00:37:04;;;;;;;1.55;0.85;;;;;;;;;;5003689;28;20069;-60
2021/08/22 00:39:30;;;;;;;3.05;1.00;;;;;;;;;;5008665;28;20046;-60
2021/08/22 00:41:57;;;;;;;4.20;1.30;;;;;;;;;;5005810;28;20029;-60
2021/08/22 00:44:23;;;;;;;1.20;0.88;;;;;;;;;;5010868;28;20032;-60
2021/08/22 00:46:56;;;;;;;4.30;1.30;;;;;;;;;;5006446;28;20041;-60
2021/08/22 00:49:22;;;;;;;1.13;0.93;;;;;;;;;;5005085;28;20399;-60
2021/08/22 00:51:48;;;;;;;2.10;1.10;;;;;;;;;;5002927;28;20128;-59
2021/08/22 00:54:14;;;;;;;1.92;1.30;;;;;;;;;;4999785;28;20379;-60
2021/08/22 00:56:41;;;;;;;2.63;1.30;;;;;;;;;;5010538;28;20112;-60
2021/08/22 00:59:08;;;;;;;2.10;1.30;;;;;;;;;;5009945;28;20033;-60
2021/08/22 01:01:34;;;;;;;1.77;0.95;;;;;;;;;;5006895;28;20397;-59
2021/08/22 01:04:19;;;;;;;2.47;1.23;;;;;;;;;;5004479;28;20088;-60
2021/08/22 01:07:04;;;;;;;1.40;1.23;;;;;;;;;;5004493;28;20026;-60
2021/08/22 01:09:35;;;;;;;2.22;1.30;;;;;;;;;;5009145;28;20042;-60
2021/08/22 01:12:02;;;;;;;1.67;0.82;;;;;;;;;;5006482;28;20044;-60
2021/08/22 01:14:32;;;;;;;2.28;1.50;;;;;;;;;;5009803;28;20022;-60
2021/08/22 01:16:58;;;;;;;2.90;1.35;;;;;;;;;;5007606;28;20042;-60
2021/08/22 01:19:43;;;;;;;1.67;0.90;;;;;;;;;;5010242;28;20034;-60
2021/08/22 01:22:09;;;;;;;1.75;1.10;;;;;;;;;;5005819;28;20029;-60
2021/08/22 01:24:40;;;;;;;1.30;0.90;;;;;;;;;;5010025;28;20045;-60
2021/08/22 01:27:06;;;;;;;1.73;1.05;;;;;;;;;;5007345;28;20033;-59
2021/08/22 01:29:38;;;;;;;3.20;1.23;;;;;;;;;;5012241;28;20026;-60
2021/08/22 01:32:04;;;;;;;1.75;0.80;;;;;;;;;;5012658;28;20048;-60
2021/08/22 01:34:30;;;;;;;1.38;1.13;;;;;;;;;;5010571;28;20037;-60
2021/08/22 01:36:57;;;;;;;1.02;0.88;;;;;;;;;;5009855;28;20044;-60
2021/08/22 01:39:23;;;;;;;1.65;1.00;;;;;;;;;;5009381;28;20037;-60
2021/08/22 01:41:49;;;;;;;1.15;0.90;;;;;;;;;;5010881;28;20040;-60
2021/08/22 01:44:19;;;;;;;2.53;1.40;;;;;;;;;;5012993;28;20022;-60
2021/08/22 01:46:45;;;;;;;1.40;1.08;;;;;;;;;;5012188;28;20030;-60
2021/08/22 01:49:12;;;;;;;1.67;0.88;;;;;;;;;;5013920;28;20032;-60
2021/08/22 01:51:38;;;;;;;1.83;1.00;;;;;;;;;;5012075;28;20048;-60
2021/08/22 01:54:06;;;;;;;1.65;1.13;;;;;;;;;;5013213;28;20124;-60
2021/08/22 01:56:32;;;;;;;2.58;1.13;;;;;;;;;;5014033;28;20112;-60
2021/08/22 01:58:59;;;;;;;2.28;1.38;;;;;;;;;;5008777;28;20026;-60
2021/08/22 02:01:25;;;;;;;2.03;1.48;;;;;;;;;;5013670;28;20038;-59
2021/08/22 02:03:54;;;;;;;1.42;0.93;;;;;;;;;;5013381;28;20494;-59
2021/08/22 02:06:23;;;;;;;1.60;0.98;;;;;;;;;;5008531;28;20030;-60
2021/08/22 02:08:52;;;;;;;1.80;1.00;;;;;;;;;;5012294;28;20109;-59
2021/08/22 02:11:20;;;;;;;1.70;1.00;;;;;;;;;;5027042;28;20038;-60
2021/08/22 02:13:47;;;;;;;2.03;1.10;;;;;;;;;;5013649;28;20061;-59
2021/08/22 02:16:15;;;;;;;2.28;1.25;;;;;;;;;;5006925;28;20054;-60
2021/08/22 02:18:42;;;;;;;2.15;1.00;;;;;;;;;;5009561;28;20123;-60
2021/08/22 02:21:08;;;;;;;2.15;1.20;;;;;;;;;;5011369;28;20030;-61
2021/08/22 02:23:35;;;;;;;1.40;0.80;;;;;;;;;;5010131;28;20049;-60
2021/08/22 02:26:01;;;;;;;1.80;1.13;;;;;;;;;;5009074;28;20034;-60
2021/08/22 02:28:27;;;;;;;1.70;1.00;;;;;;;;;;5010541;28;20026;-60
2021/08/22 02:30:53;;;;;;;1.88;1.15;;;;;;;;;;5012115;28;20382;-60
2021/08/22 02:33:20;;;;;;;2.65;1.27;;;;;;;;;;5009149;28;20485;-60
2021/08/22 02:35:46;;;;;;;2.38;1.63;;;;;;;;;;5007868;28;20469;-60
2021/08/22 02:38:12;;;;;;;2.22;1.10;;;;;;;;;;5007834;28;20049;-60
2021/08/22 02:40:38;;;;;;;1.58;1.02;;;;;;;;;;5007040;28;20129;-60
2021/08/22 02:43:03;;;;;;;1.65;1.02;;;;;;;;;;5004867;28;20500;-59
2021/08/22 02:45:30;;;;;;;1.60;1.13;;;;;;;;;;5012378;28;20142;-60
2021/08/22 02:47:59;;;;;;;1.35;0.90;;;;;;;;;;5008546;28;20104;-60
2021/08/22 02:50:25;;;;;;;1.42;1.10;;;;;;;;;;5008231;28;20139;-60
2021/08/22 02:52:51;;;;;;;1.23;1.10;;;;;;;;;;5007282;28;20033;-60
2021/08/22 02:55:17;;;;;;;1.77;0.90;;;;;;;;;;5004820;28;20030;-60
2021/08/22 02:57:43;;;;;;;2.55;1.13;;;;;;;;;;5013144;28;20083;-60
2021/08/22 03:00:10;;;;;;;2.08;1.25;;;;;;;;;;5009348;28;20502;-60
2021/08/22 03:02:36;;;;;;;1.98;1.30;;;;;;;;;;5007927;28;20034;-60
2021/08/22 03:05:02;;;;;;;1.13;0.80;;;;;;;;;;5005272;28;20113;-59
2021/08/22 03:07:28;;;;;;;1.90;1.42;;;;;;;;;;5004950;28;20044;-60
2021/08/22 03:09:54;;;;;;;2.45;1.00;;;;;;;;;;5009398;28;20124;-60
2021/08/22 03:12:20;;;;;;;1.02;0.70;;;;;;;;;;5011336;28;20014;-60
2021/08/22 03:14:46;;;;;;;2.63;1.15;;;;;;;;;;5004914;28;20026;-60
2021/08/22 03:17:12;;;;;;;1.00;0.80;;;;;;;;;;5010424;28;20445;-60
2021/08/22 03:19:38;;;;;;;3.08;1.20;;;;;;;;;;5010923;28;20042;-60
2021/08/22 03:22:04;;;;;;;4.93;1.23;;;;;;;;;;5012682;28;20084;-60
2021/08/22 03:24:30;;;;;;;1.55;0.98;;;;;;;;;;5012600;28;20117;-60
2021/08/22 03:26:56;;;;;;;1.73;0.80;;;;;;;;;;5010778;28;20097;-60
2021/08/22 03:29:22;;;;;;;1.33;0.90;;;;;;;;;;5012755;28;20366;-60
2021/08/22 03:31:48;;;;;;;1.25;0.80;;;;;;;;;;5009047;28;20034;-60
2021/08/22 03:34:14;;;;;;;1.90;0.80;;;;;;;;;;5007117;28;20034;-60
2021/08/22 03:36:40;;;;;;;2.15;0.93;;;;;;;;;;5007879;28;20022;-60
2021/08/22 03:39:07;;;;;;;5.00;0.90;;;;;;;;;;5009558;28;20065;-60
2021/08/22 03:41:35;;;;;;;1.75;0.98;;;;;;;;;;5012904;28;20029;-60
2021/08/22 03:44:01;;;;;;;1.42;0.70;;;;;;;;;;5011812;28;20108;-60
2021/08/22 03:46:27;;;;;;;1.80;0.90;;;;;;;;;;5011975;28;20038;-60
2021/08/22 03:48:52;;;;;;;1.13;0.70;;;;;;;;;;5009816;28;20688;-60
2021/08/22 03:51:22;;;;;;;1.33;1.02;;;;;;;;;;5007926;28;20030;-60
2021/08/22 03:53:48;;;;;;;1.42;0.90;;;;;;;;;;5012355;28;20030;-60
2021/08/22 03:56:16;;;;;;;2.17;1.17;;;;;;;;;;5010408;28;20037;-60
2021/08/22 03:58:42;;;;;;;2.30;1.25;;;;;;;;;;5009452;28;20409;-60
2021/08/22 04:01:08;;;;;;;1.73;1.17;;;;;;;;;;5011291;28;20109;-60
2021/08/22 04:03:37;;;;;;;1.38;0.80;;;;;;;;;;5008626;28;20038;-60
2021/08/22 04:06:03;;;;;;;1.95;1.38;;;;;;;;;;5009852;28;20096;-60
2021/08/22 04:08:31;;;;;;;1.55;0.98;;;;;;;;;;5008593;28;20038;-60
2021/08/22 04:10:57;;;;;;;1.52;1.08;;;;;;;;;;5011400;28;20049;-60
2021/08/22 04:13:23;;;;;;;1.80;0.85;;;;;;;;;;5012249;28;20030;-60
2021/08/22 04:15:49;;;;;;;1.98;1.20;;;;;;;;;;5010958;28;20033;-60
2021/08/22 04:18:16;;;;;;;3.25;1.30;;;;;;;;;;5012222;28;20030;-59
2021/08/22 04:20:42;;;;;;;1.58;1.00;;;;;;;;;;5010236;28;20421;-59
2021/08/22 04:23:08;;;;;;;2.25;1.15;;;;;;;;;;5003735;28;20026;-59
2021/08/22 04:25:35;;;;;;;3.33;0.98;;;;;;;;;;5009835;28;20048;-58
2021/08/22 04:28:01;;;;;;;1.83;0.98;;;;;;;;;;5010473;28;20026;-57
2021/08/22 04:30:27;;;;;;;1.55;1.17;;;;;;;;;;5008382;28;20442;-59
2021/08/22 04:32:53;;;;;;;1.25;0.95;;;;;;;;;;5011909;28;20101;-59
2021/08/22 04:35:19;;;;;;;1.65;1.00;;;;;;;;;;5010679;28;20021;-59
2021/08/22 04:37:45;;;;;;;1.50;0.88;;;;;;;;;;5007644;28;20083;-58
2021/08/22 04:40:11;;;;;;;1.58;1.10;;;;;;;;;;5008740;28;20038;-58
2021/08/22 04:42:37;;;;;;;2.22;1.23;;;;;;;;;;5011030;28;20034;-58
2021/08/22 04:45:03;;;;;;;2.22;1.00;;;;;;;;;;5014354;28;20049;-59
2021/08/22 04:47:29;;;;;;;2.90;1.02;;;;;;;;;;5006509;28;20034;-58
2021/08/22 04:49:55;;;;;;;1.63;1.17;;;;;;;;;;5002371;28;20470;-59
2021/08/22 04:52:21;;;;;;;2.08;0.80;;;;;;;;;;5005569;28;20036;-58
2021/08/22 04:54:47;;;;;;;1.90;1.30;;;;;;;;;;5009511;28;20030;-59
2021/08/22 04:57:13;;;;;;;1.50;1.10;;;;;;;;;;5011371;28;20501;-59
2021/08/22 04:59:39;;;;;;;1.58;1.17;;;;;;;;;;5010377;28;20038;-59
2021/08/22 05:02:05;;;;;;;1.42;0.82;;;;;;;;;;5011325;28;20034;-59
2021/08/22 05:04:32;;;;;;;2.00;1.00;;;;;;;;;;5008436;28;20033;-59
2021/08/22 05:06:58;;;;;;;1.30;0.77;;;;;;;;;;5013712;28;20021;-59
2021/08/22 05:09:24;;;;;;;1.10;0.88;;;;;;;;;;5010749;28;20520;-59
2021/08/22 05:11:50;;;;;;;1.25;0.80;;;;;;;;;;5008966;28;20066;-57
2021/08/22 05:14:16;;;;;;;2.60;1.10;;;;;;;;;;5007244;28;20117;-59
2021/08/22 05:16:42;;;;;;;1.95;0.90;;;;;;;;;;5009034;28;20041;-57
2021/08/22 05:19:08;;;;;;;1.38;0.93;;;;;;;;;;5013506;28;20034;-59
2021/08/22 05:21:34;;;;;;;2.15;1.30;;;;;;;;;;5010830;28;20045;-56
2021/08/22 05:24:00;;;;;;;2.00;1.10;;;;;;;;;;5014078;28;20026;-59
2021/08/22 05:26:26;;;;;;;1.88;1.08;;;;;;;;;;5018780;28;20034;-59
2021/08/22 05:28:52;;;;;;;1.20;1.00;;;;;;;;;;5008434;28;20033;-57
2021/08/22 05:31:18;;;;;;;2.08;1.00;;;;;;;;;;5008317;28;20113;-56
2021/08/22 05:33:44;;;;;;;1.58;0.93;;;;;;;;;;5011766;28;20415;-56
2021/08/22 05:36:15;;;;;;;2.13;1.10;;;;;;;;;;5018096;28;20040;-58
2021/08/22 05:38:41;;;;;;;1.30;0.95;;;;;;;;;;5011433;28;20018;-58
2021/08/22 05:41:07;;;;;;;1.00;0.65;;;;;;;;;;5012781;28;20555;-58
2021/08/22 05:43:33;;;;;;;1.38;0.70;;;;;;;;;;5010908;28;20030;-58
2021/08/22 05:45:59;;;;;;;2.47;0.90;;;;;;;;;;5014324;28;20382;-59
2021/08/22 05:48:25;;;;;;;1.75;0.68;;;;;;;;;;5010887;28;20025;-59
2021/08/22 05:50:51;;;;;;;1.58;0.75;;;;;;;;;;5008731;28;20030;-59
2021/08/22 05:53:17;;;;;;;1.42;1.10;;;;;;;;;;5007268;28;20041;-59
2021/08/22 05:55:43;;;;;;;1.65;1.00;;;;;;;;;;5009978;28;20037;-59
2021/08/22 05:58:09;;;;;;;1.33;0.93;;;;;;;;;;5009415;28;20096;-59
2021/08/22 06:00:36;;;;;;;2.05;1.00;;;;;;;;;;5010769;28;20049;-59
2021/08/22 06:03:02;;;;;;;0.93;0.65;;;;;;;;;;5006721;28;20022;-58
2021/08/22 06:05:28;;;;;;;1.30;0.95;;;;;;;;;;5009277;28;20033;-59
2021/08/22 06:07:54;;;;;;;1.17;0.60;;;;;;;;;;5011312;28;20565;-56
2021/08/22 06:10:20;;;;;;;1.08;0.65;;;;;;;;;;5007544;28;20076;-58
2021/08/22 06:12:46;;;;;;;1.90;1.05;;;;;;;;;;5014073;28;20026;-59
2021/08/22 06:15:13;;;;;;;1.50;0.95;;;;;;;;;;5012966;28;20069;-59
2021/08/22 06:17:39;;;;;;;3.28;1.10;;;;;;;;;;5010564;28;20454;-59
2021/08/22 06:20:05;;;;;;;0.90;0.60;;;;;;;;;;5007714;28;20108;-58
2021/08/22 06:22:32;;;;;;;1.30;0.80;;;;;;;;;;5010544;28;20037;-58
2021/08/22 06:24:58;;;;;;;2.38;1.15;;;;;;;;;;5010646;28;20034;-59
2021/08/22 06:27:24;;;;;;;1.00;0.75;;;;;;;;;;5011367;28;20413;-58
2021/08/22 06:29:49;;;;;;;1.23;0.80;;;;;;;;;;5010938;28;20041;-58
2021/08/22 06:32:15;;;;;;;1.02;0.80;;;;;;;;;;5013240;28;20088;-59
2021/08/22 06:34:41;;;;;;;1.45;0.77;;;;;;;;;;5010679;28;20497;-59
2021/08/22 06:37:09;;;;;;;1.83;0.88;;;;;;;;;;5008864;28;20651;-58
2021/08/22 06:39:40;;;;;;;1.35;0.80;;;;;;;;;;5004490;28;20069;-59
2021/08/22 06:42:06;;;;;;;1.38;0.77;;;;;;;;;;5006806;28;20038;-57
2021/08/22 06:44:33;;;;;;;0.95;0.70;;;;;;;;;;5008023;28;20030;-58
2021/08/22 06:46:59;;;;;;;1.35;0.60;;;;;;;;;;5008434;28;20034;-55
2021/08/22 06:49:25;;;;;;;1.27;0.63;;;;;;;;;;5009590;28;20038;-57
2021/08/22 06:51:51;;;;;;;0.70;0.50;;;;;;;;;;5008355;28;20029;-58
2021/08/22 06:54:17;;;;;;;1.25;0.70;;;;;;;;;;5007081;28;20258;-58
2021/08/22 06:56:43;;;;;;;1.15;0.70;;;;;;;;;;5008609;28;20025;-57
2021/08/22 06:59:09;;;;;;;1.88;0.90;;;;;;;;;;5007008;28;20021;-58
2021/08/22 07:01:36;;;;;;;1.02;0.70;;;;;;;;;;5007573;28;20120;-58
2021/08/22 07:04:02;;;;;;;1.45;0.90;;;;;;;;;;5008751;28;20133;-55
2021/08/22 07:06:28;;;;;;;1.08;0.63;;;;;;;;;;5009880;28;20026;-57
2021/08/22 07:08:54;;;;;;;1.50;0.95;;;;;;;;;;5007347;28;20793;-57
2021/08/22 07:11:20;;;;;;;2.53;0.63;;;;;;;;;;5011657;28;20038;-58
2021/08/22 07:13:45;;;;;;;2.10;1.00;;;;;;;;;;5012890;28;20049;-58
2021/08/22 07:16:11;;;;;;;1.10;0.77;;;;;;;;;;5008991;28;20037;-57
2021/08/22 07:18:37;;;;;;;1.58;1.00;;;;;;;;;;5003064;28;20026;-57
2021/08/22 07:21:04;;;;;;;1.38;0.85;;;;;;;;;;5001021;28;20061;-59
2021/08/22 07:23:30;;;;;;;1.00;0.88;;;;;;;;;;5012619;28;20417;-59
2021/08/22 07:25:56;;;;;;;1.90;0.73;;;;;;;;;;5007811;28;20470;-57
2021/08/22 07:28:22;;;;;;;1.55;0.90;;;;;;;;;;5011797;28;20037;-56
2021/08/22 07:30:48;;;;;;;1.85;0.80;;;;;;;;;;5009110;28;20037;-58
2021/08/22 07:33:14;;;;;;;1.98;0.70;;;;;;;;;;5006648;28;20410;-55
2021/08/22 07:35:40;;;;;;;1.63;1.10;;;;;;;;;;5012676;28;20045;-57
2021/08/22 07:38:06;;;;;;;1.05;0.70;;;;;;;;;;5006929;28;20026;-58
2021/08/22 07:40:32;;;;;;;1.75;0.80;;;;;;;;;;5004599;28;20042;-57
2021/08/22 07:42:58;;;;;;;1.75;1.08;;;;;;;;;;5011479;28;20034;-58
2021/08/22 07:45:25;;;;;;;1.33;0.70;;;;;;;;;;5010157;28;20030;-57
2021/08/22 07:47:51;;;;;;;2.97;0.70;;;;;;;;;;5004915;28;20370;-56
2021/08/22 07:50:17;;;;;;;1.33;0.88;;;;;;;;;;5005180;28;20466;-58
2021/08/22 07:52:43;;;;;;;1.10;0.93;;;;;;;;;;5005438;28;20026;-58
2021/08/22 07:55:10;;;;;;;3.03;0.95;;;;;;;;;;5010859;28;20025;-58
2021/08/22 07:57:35;;;;;;;1.10;0.80;;;;;;;;;;5000538;28;20474;-58
2021/08/22 08:00:01;;;;;;;1.63;0.90;;;;;;;;;;5003469;28;20034;-57
2021/08/22 08:02:27;;;;;;;1.38;0.93;;;;;;;;;;5006689;28;20065;-58
2021/08/22 08:04:53;;;;;;;1.33;0.85;;;;;;;;;;5007947;28;20038;-53
2021/08/22 08:07:19;;;;;;;1.30;0.75;;;;;;;;;;5012369;28;20034;-58
2021/08/22 08:09:45;;;;;;;0.93;0.57;;;;;;;;;;5008954;28;20104;-58
2021/08/22 08:12:11;;;;;;;2.65;1.00;;;;;;;;;;5007477;28;20095;-55
2021/08/22 08:14:37;;;;;;;1.45;0.93;;;;;;;;;;5011426;28;20026;-58
2021/08/22 08:17:03;;;;;;;1.73;0.88;;;;;;;;;;5009386;28;20022;-57
2021/08/22 08:19:29;;;;;;;1.67;0.90;;;;;;;;;;5007134;28;20022;-56
2021/08/22 08:21:55;;;;;;;1.77;0.80;;;;;;;;;;5011681;28;20029;-57
2021/08/22 08:24:21;;;;;;;1.60;1.00;;;;;;;;;;5011857;28;20034;-56
2021/08/22 08:26:47;;;;;;;2.22;1.17;;;;;;;;;;5010566;28;20053;-57
2021/08/22 08:29:13;;;;;;;2.38;0.95;;;;;;;;;;5009662;28;20034;-56
2021/08/22 08:31:39;;;;;;;1.48;0.90;;;;;;;;;;5004697;28;20033;-57
2021/08/22 08:34:05;;;;;;;2.13;1.02;;;;;;;;;;4999497;28;20034;-58
2021/08/22 08:36:31;;;;;;;1.65;1.15;;;;;;;;;;4999737;28;20371;-58
2021/08/22 08:38:57;;;;;;;2.15;1.20;;;;;;;;;;5000265;28;20042;-57
2021/08/22 08:41:23;;;;;;;1.13;0.80;;;;;;;;;;5007459;28;20109;-59
2021/08/22 08:43:49;;;;;;;1.48;0.70;;;;;;;;;;5009399;28;20447;-58
2021/08/22 08:46:21;;;;;;;2.10;1.15;;;;;;;;;;5005874;28;20023;-59
2021/08/22 08:49:06;;;;;;;2.80;1.33;;;;;;;;;;5009613;28;21256;-58
2021/08/22 08:51:35;;;;;;;2.33;1.33;;;;;;;;;;5003783;28;20029;-57
2021/08/22 08:54:01;;;;;;;2.47;1.30;;;;;;;;;;5008363;28;20232;-58
2021/08/22 08:56:33;;;;;;;1.77;0.98;;;;;;;;;;5008445;28;20470;-58
2021/08/22 08:58:59;;;;;;;2.40;1.13;;;;;;;;;;5004125;28;20023;-56
2021/08/22 09:01:25;;;;;;;2.35;1.17;;;;;;;;;;5005065;28;20031;-58
2021/08/22 09:04:12;;;;;;;1.67;0.90;;;;;;;;;;5010903;28;20045;-55
2021/08/22 09:06:50;;;;;;;2.42;1.20;;;;;;;;;;5009326;28;20041;-58
2021/08/22 09:09:35;;;;;;;1.60;1.10;;;;;;;;;;5004834;28;20394;-55
2021/08/22 09:12:19;;;;;;;1.88;1.15;;;;;;;;;;5006864;28;20068;-58
2021/08/22 09:15:04;;;;;;;1.52;0.93;;;;;;;;;;5002840;28;20045;-58
2021/08/22 09:17:30;;;;;;;2.10;1.00;;;;;;;;;;5004163;28;20058;-58
2021/08/22 09:20:22;;;;;;;2.38;1.15;;;;;;;;;;5009552;28;20022;-58
2021/08/22 09:23:07;;;;;;;2.60;1.50;;;;;;;;;;4999551;28;20069;-58
2021/08/22 09:25:51;;;;;;;2.10;1.20;;;;;;;;;;5007904;28;20034;-58
2021/08/22 09:28:17;;;;;;;2.05;1.20;;;;;;;;;;5008454;28;20026;-57
2021/08/22 09:31:15;;;;;;;3.05;1.38;;;;;;;;;;5003648;28;20041;-55
2021/08/22 09:34:00;;;;;;;2.28;1.10;;;;;;;;;;5006667;28;20525;-57
2021/08/22 09:36:26;;;;;;;1.88;1.17;;;;;;;;;;5010456;28;20577;-55
2021/08/22 09:39:10;;;;;;;5.28;1.13;;;;;;;;;;5010041;28;20029;-57
2021/08/22 09:41:55;;;;;;;2.47;1.38;;;;;;;;;;5008650;28;20033;-56
2021/08/22 09:44:44;;;;;;;2.00;1.67;;;;;;;;;;5007833;28;20034;-58
2021/08/22 09:47:13;;;;;;;2.05;1.17;;;;;;;;;;5008868;28;20018;-58
2021/08/22 09:50:00;;;;;;;3.40;1.05;;;;;;;;;;5006561;28;20030;-56
2021/08/22 09:52:45;;;;;;;3.45;1.92;;;;;;;;;;5013105;28;20397;-57
2021/08/22 09:55:30;;;;;;;3.22;1.10;;;;;;;;;;5010120;28;20033;-58
2021/08/22 09:58:24;;;;;;;2.25;1.30;;;;;;;;;;5012016;28;20030;-54
2021/08/22 10:00:59;;;;;;;2.40;1.45;;;;;;;;;;5008962;28;20026;-58
2021/08/22 10:03:31;;;;;;;2.15;1.55;;;;;;;;;;5006544;28;20109;-58
2021/08/22 10:06:05;;;;;;;2.60;1.48;;;;;;;;;;5012097;28;20375;-58
2021/08/22 10:08:47;;;;;;;3.05;1.42;;;;;;;;;;5004033;28;20026;-58
2021/08/22 10:11:16;;;;;;;2.65;1.42;;;;;;;;;;5006904;28;20046;-58
2021/08/22 10:13:42;;;;;;;1.90;1.20;;;;;;;;;;5012266;28;20026;-57
2021/08/22 10:16:08;;;;;;;1.80;1.20;;;;;;;;;;5010485;28;20026;-57
2021/08/22 10:18:34;;;;;;;3.22;1.20;;;;;;;;;;5013169;28;20488;-58
2021/08/22 10:21:02;;;;;;;3.65;1.10;;;;;;;;;;5010476;28;20080;-58
2021/08/22 10:23:38;;;;;;;1.08;0.88;;;;;;;;;;5013325;28;20482;-57
2021/08/22 10:26:04;;;;;;;1.65;1.00;;;;;;;;;;5012408;28;20037;-57
2021/08/22 10:28:45;;;;;;;1.55;1.08;;;;;;;;;;5007079;28;20121;-56
2021/08/22 10:31:12;;;;;;;3.05;1.23;;;;;;;;;;5006916;28;20021;-58
2021/08/22 10:33:57;;;;;;;1.80;1.17;;;;;;;;;;5011217;28;20026;-56
2021/08/22 10:36:28;;;;;;;1.60;0.88;;;;;;;;;;5011504;28;20113;-59
2021/08/22 10:39:14;;;;;;;1.67;1.20;;;;;;;;;;5005742;28;20036;-57
2021/08/22 10:41:41;;;;;;;1.75;1.08;;;;;;;;;;5012454;28;20105;-58
2021/08/22 10:44:26;;;;;;;1.75;1.00;;;;;;;;;;5007416;28;20116;-58
2021/08/22 10:46:52;;;;;;;2.55;1.23;;;;;;;;;;5008763;28;20554;-55
2021/08/22 10:49:38;;;;;;;2.70;1.55;;;;;;;;;;5013649;28;20097;-58
2021/08/22 10:52:25;;;;;;;4.15;1.73;;;;;;;;;;5011472;28;20099;-57
2021/08/22 10:55:06;;;;;;;7.22;1.50;;;;;;;;;;5010126;28;20062;-58
2021/08/22 10:57:45;;;;;;;2.15;1.30;;;;;;;;;;5011748;28;20029;-58
2021/08/22 11:00:19;;;;;;;2.80;1.52;;;;;;;;;;5007976;28;20037;-58
2021/08/22 11:02:45;;;;;;;1.60;1.20;;;;;;;;;;5009845;28;20046;-58
2021/08/22 11:05:12;;;;;;;2.33;1.52;;;;;;;;;;5011409;28;20673;-58
2021/08/22 11:07:38;;;;;;;4.20;1.80;;;;;;;;;;5009268;28;20026;-59
2021/08/22 11:10:04;;;;;;;3.60;1.80;;;;;;;;;;5009357;28;20042;-58
2021/08/22 11:12:34;;;;;;;2.05;1.45;;;;;;;;;;5008778;28;20045;-58
2021/08/22 11:15:03;;;;;;;2.88;1.60;;;;;;;;;;5010378;28;20121;-60
2021/08/22 11:17:29;;;;;;;3.88;2.35;;;;;;;;;;5012574;28;20030;-60
2021/08/22 11:20:12;;;;;;;2.08;1.50;;;;;;;;;;5012280;28;20026;-59
2021/08/22 11:22:38;;;;;;;2.50;1.50;;;;;;;;;;5010498;28;20124;-59
2021/08/22 11:25:05;;;;;;;4.10;1.80;;;;;;;;;;5012945;28;20103;-59
2021/08/22 11:27:31;;;;;;;3.80;2.05;;;;;;;;;;5013288;28;20393;-60
2021/08/22 11:30:08;;;;;;;3.55;2.10;;;;;;;;;;5011147;28;20022;-58
2021/08/22 11:32:34;;;;;;;2.95;1.70;;;;;;;;;;5003683;28;20033;-59
2021/08/22 11:35:16;;;;;;;3.60;1.73;;;;;;;;;;5008101;28;20106;-59
2021/08/22 11:37:43;;;;;;;2.10;1.65;;;;;;;;;;5006643;28;20148;-60
2021/08/22 11:40:10;;;;;;;5.07;2.13;;;;;;;;;;5011206;28;20068;-60
2021/08/22 11:42:36;;;;;;;6.35;2.03;;;;;;;;;;5009237;28;20033;-60
2021/08/22 11:45:07;;;;;;;3.50;2.08;;;;;;;;;;5012253;28;20108;-60
2021/08/22 11:47:33;;;;;;;3.55;2.22;;;;;;;;;;5011809;28;20076;-60
2021/08/22 11:49:59;;;;;;;3.42;2.10;;;;;;;;;;5011721;28;20022;-60
2021/08/22 11:52:25;;;;;;;3.38;2.10;;;;;;;;;;5009083;28;20026;-60
2021/08/22 11:54:51;;;;;;;4.13;2.53;;;;;;;;;;5011614;28;20022;-60
2021/08/22 11:57:18;;;;;;;3.40;2.40;;;;;;;;;;5011763;28;20130;-60
2021/08/22 11:59:44;;;;;;;3.42;2.25;;;;;;;;;;5012373;28;20090;-60
2021/08/22 12:02:18;;;;;;;4.95;2.28;;;;;;;;;;5010385;28;20045;-60
2021/08/22 12:04:44;;;;;;;6.50;2.65;;;;;;;;;;5010213;28;20038;-59
2021/08/22 12:07:10;;;;;;;5.38;3.05;;;;;;;;;;5007697;28;20021;-59
2021/08/22 12:09:36;;;;;;;5.13;3.15;;;;;;;;;;5009274;28;20049;-60
2021/08/22 12:12:03;;;;;;;5.28;2.72;;;;;;;;;;5006292;28;20101;-60
2021/08/22 12:14:32;;;;;;;4.85;2.85;;;;;;;;;;5011249;28;20022;-61
2021/08/22 12:16:59;;;;;;;5.82;3.33;;;;;;;;;;5010089;28;20021;-60
2021/08/22 12:19:27;;;;;;;5.57;3.55;;;;;;;;;;5010816;28;20034;-60
2021/08/22 12:21:54;;;;;;;5.45;2.92;;;;;;;;;;5010030;28;20498;-59
2021/08/22 12:24:21;;;;;;;4.18;2.95;;;;;;;;;;5010865;28;20155;-59
2021/08/22 12:26:50;;;;;;;5.38;3.33;;;;;;;;;;5010713;28;20056;-60
2021/08/22 12:29:17;;;;;;;8.80;3.38;;;;;;;;;;5009406;28;20038;-59
2021/08/22 12:31:43;;;;;;;6.80;2.95;;;;;;;;;;5009695;28;20018;-59
2021/08/22 12:34:11;;;;;;;6.78;3.65;;;;;;;;;;5013107;28;20037;-60
2021/08/22 12:36:38;;;;;;;6.72;3.40;;;;;;;;;;5011242;28;20033;-60
2021/08/22 12:39:09;;;;;;;6.38;3.15;;;;;;;;;;5011200;28;20077;-60
2021/08/22 12:41:51;;;;;;;6.00;3.60;;;;;;;;;;5008988;28;20033;-60
2021/08/22 12:44:21;;;;;;;6.32;3.67;;;;;;;;;;5010090;28;20029;-59
2021/08/22 12:46:58;;;;;;;5.07;3.13;;;;;;;;;;5008901;28;20014;-60
2021/08/22 12:49:24;;;;;;;5.95;3.75;;;;;;;;;;5010782;28;20129;-59
2021/08/22 12:51:54;;;;;;;6.35;3.80;;;;;;;;;;5014194;28;20125;-60
2021/08/22 12:54:22;;;;;;;7.00;3.85;;;;;;;;;;5010600;28;20088;-60
2021/08/22 12:56:48;;;;;;;5.07;3.20;;;;;;;;;;5011485;28;20084;-60
2021/08/22 12:59:14;;;;;;;6.95;3.80;;;;;;;;;;5010053;28;20030;-60
2021/08/22 13:01:40;;;;;;;7.68;3.67;;;;;;;;;;5009496;28;20033;-60
2021/08/22 13:04:06;;;;;;;5.10;3.50;;;;;;;;;;5008923;28;20172;-60
2021/08/22 13:06:32;;;;;;;5.00;3.47;;;;;;;;;;5006781;28;20025;-60
2021/08/22 13:08:58;;;;;;;3.25;2.42;;;;;;;;;;5010220;28;20378;-60
2021/08/22 13:11:24;;;;;;;5.03;2.95;;;;;;;;;;5012165;28;20038;-60
2021/08/22 13:13:52;;;;;;;4.90;3.33;;;;;;;;;;5008001;28;20038;-59
2021/08/22 13:16:18;;;;;;;4.63;2.45;;;;;;;;;;5007088;28;20057;-60
2021/08/22 13:18:44;;;;;;;3.75;2.53;;;;;;;;;;5009537;28;20038;-60
2021/08/22 13:21:11;;;;;;;3.83;2.47;;;;;;;;;;5008251;28;20040;-60
2021/08/22 13:23:37;;;;;;;5.20;2.20;;;;;;;;;;5009899;28;20455;-60
2021/08/22 13:26:06;;;;;;;2.70;1.92;;;;;;;;;;5013305;28;20478;-59
2021/08/22 13:28:32;;;;;;;4.68;2.00;;;;;;;;;;5010181;28;20092;-60
2021/08/22 13:30:58;;;;;;;2.75;1.98;;;;;;;;;;5008952;28;20029;-60
2021/08/22 13:33:24;;;;;;;4.72;2.35;;;;;;;;;;5011936;28;20056;-60
2021/08/22 13:35:50;;;;;;;4.93;1.83;;;;;;;;;;5009850;28;20028;-60
2021/08/22 13:38:16;;;;;;;4.85;2.42;;;;;;;;;;5006791;28;20109;-59
2021/08/22 13:40:43;;;;;;;3.05;2.25;;;;;;;;;;5013865;28;20517;-59
2021/08/22 13:43:13;;;;;;;5.32;2.90;;;;;;;;;;5012867;28;20030;-59
2021/08/22 13:45:39;;;;;;;3.92;2.28;;;;;;;;;;5010538;28;20042;-59
2021/08/22 13:48:05;;;;;;;5.70;2.20;;;;;;;;;;5009245;28;20138;-59
2021/08/22 13:50:31;;;;;;;3.42;2.03;;;;;;;;;;5010190;28;20084;-60
2021/08/22 13:52:59;;;;;;;3.47;2.35;;;;;;;;;;5011682;28;20026;-59
2021/08/22 13:55:25;;;;;;;3.25;2.33;;;;;;;;;;5010888;28;20085;-59
2021/08/22 13:57:51;;;;;;;3.47;2.40;;;;;;;;;;5005560;28;20033;-59
2021/08/22 14:00:17;;;;;;;4.45;2.78;;;;;;;;;;5009701;28;20101;-59
2021/08/22 14:02:43;;;;;;;4.97;2.90;;;;;;;;;;5008785;28;20023;-59
2021/08/22 14:05:09;;;;;;;5.05;2.78;;;;;;;;;;5013214;28;20180;-59
2021/08/22 14:07:35;;;;;;;5.38;2.90;;;;;;;;;;5009208;28;20029;-59
2021/08/22 14:10:01;;;;;;;4.70;2.88;;;;;;;;;;5008914;28;20509;-59
2021/08/22 14:12:27;;;;;;;5.47;3.20;;;;;;;;;;5015719;28;20026;-59
2021/08/22 14:14:53;;;;;;;6.75;3.10;;;;;;;;;;5010088;28;20056;-60
2021/08/22 14:17:19;;;;;;;3.75;2.75;;;;;;;;;;5008296;28;20061;-59
2021/08/22 14:19:49;;;;;;;5.68;2.80;;;;;;;;;;5012662;28;20494;-59
2021/08/22 14:22:15;;;;;;;6.65;2.80;;;;;;;;;;5012569;28;20062;-58
2021/08/22 14:24:41;;;;;;;5.03;2.75;;;;;;;;;;5010612;28;20520;-60
2021/08/22 14:27:07;;;;;;;4.80;2.80;;;;;;;;;;5009650;28;20088;-59
2021/08/22 14:29:33;;;;;;;4.85;2.83;;;;;;;;;;5009725;28;20033;-59
2021/08/22 14:31:59;;;;;;;5.57;3.03;;;;;;;;;;5007264;28;20033;-60
2021/08/22 14:34:25;;;;;;;4.47;3.25;;;;;;;;;;5008047;28;20041;-59
2021/08/22 14:36:51;;;;;;;3.88;2.70;;;;;;;;;;5004910;28;20025;-59
2021/08/22 14:39:17;;;;;;;4.15;2.90;;;;;;;;;;5007232;28;20026;-59
2021/08/22 14:41:43;;;;;;;4.88;2.83;;;;;;;;;;5003572;28;20030;-58
2021/08/22 14:44:09;;;;;;;4.85;2.55;;;;;;;;;;5006887;28;20034;-58
2021/08/22 14:46:35;;;;;;;6.30;3.03;;;;;;;;;;5008889;28;20111;-60
2021/08/22 14:49:01;;;;;;;3.00;2.13;;;;;;;;;;5004476;28;20026;-59